Current Weather

Iowa County

Mineral Point, Wisconsin (KMRJ)

Report from: Wednesday, April 24, 2024 11:15 PM CDT
Current time: Wednesday, April 24, 2024 11:44 PM CDT

Nearby weather – Weather history – Daily summaries
Weather forecast

Temperature6.0°C (42.8°F)
Wind chill4.0°C (39.3°F)
Dew point-5.0°C (23.0°F)
Winds 5 kts (2.6 m/s, 5.8 mph) East-Southeast (120°)
Visibility10 mi. (16.1 km)
Clouds Sky clear
Altimeter30.28 in.Hg (1025 mB)
Relative humidity45 %
Density altitude-1,428 ft. (-435 m)
Remarks Fully automated report
Automated weather observing station with precipitation discriminator
Present weather sensor not operating
Flight conditions Visual Meteorological Conditions
Raw dataKMRJ 250415Z AUTO 12005KT 10SM CLR 06/M05 A3028 RMK AO2 PWINO
An error has occurred. This application may no longer respond until reloaded. Reload 🗙